createdAt,value
2018-11-23T00:01:31.222Z,23.67
2018-11-23T00:04:08.900Z,22.00
2018-11-23T00:06:43.762Z,23.93
2018-11-23T00:09:19.063Z,23.53
2018-11-23T00:11:55.796Z,24.57
2018-11-23T00:14:30.549Z,24.00
2018-11-23T00:17:06.962Z,24.50
2018-11-23T00:19:42.055Z,22.77
2018-11-23T00:22:17.493Z,23.33
2018-11-23T00:24:55.710Z,23.73
2018-11-23T00:27:30.901Z,21.83
2018-11-23T00:30:09.767Z,22.77
2018-11-23T00:32:45.484Z,22.07
2018-11-23T00:35:25.974Z,22.37
2018-11-23T00:38:01.630Z,23.07
2018-11-23T00:40:37.084Z,22.73
2018-11-23T00:43:13.552Z,22.53
2018-11-23T00:45:51.319Z,22.60
2018-11-23T00:48:29.435Z,23.80
2018-11-23T00:51:06.195Z,21.90
2018-11-23T00:53:47.492Z,23.07
2018-11-23T00:56:25.244Z,23.20
2018-11-23T00:59:00.916Z,22.07
2018-11-23T01:01:41.029Z,23.20
2018-11-23T01:04:18.016Z,22.57
2018-11-23T01:06:54.283Z,22.03
2018-11-23T01:09:31.829Z,21.70
2018-11-23T01:12:17.711Z,22.43
2018-11-23T01:14:55.575Z,21.53
2018-11-23T01:17:32.396Z,22.47
2018-11-23T01:20:12.099Z,23.63
2018-11-23T01:22:47.446Z,22.77
2018-11-23T01:25:24.499Z,21.23
2018-11-23T01:28:00.143Z,23.43
2018-11-23T01:30:38.497Z,21.57
2018-11-23T01:33:14.176Z,21.60
2018-11-23T01:35:50.297Z,20.83
2018-11-23T01:38:24.939Z,21.77
2018-11-23T01:41:01.982Z,22.17
2018-11-23T01:43:40.139Z,21.30
2018-11-23T01:46:17.902Z,20.93
2018-11-23T01:48:53.659Z,21.37
2018-11-23T01:51:30.020Z,21.70
2018-11-23T01:54:05.921Z,21.57
2018-11-23T01:56:40.900Z,21.13
2018-11-23T01:59:17.208Z,21.77
2018-11-23T02:01:52.993Z,21.00
2018-11-23T02:04:29.088Z,22.73
2018-11-23T02:07:05.199Z,20.70
2018-11-23T02:09:42.479Z,21.97
2018-11-23T02:12:18.633Z,21.07
2018-11-23T02:14:55.636Z,21.97
2018-11-23T02:17:32.877Z,21.13
2018-11-23T02:20:10.717Z,20.43
2018-11-23T02:22:46.630Z,20.63
2018-11-23T02:25:29.092Z,21.43
2018-11-23T02:28:04.382Z,20.93
2018-11-23T02:30:42.196Z,20.63
2018-11-23T02:33:18.178Z,20.27
2018-11-23T02:35:55.747Z,20.33
2018-11-23T02:38:31.986Z,20.53
2018-11-23T02:41:09.211Z,20.33
2018-11-23T02:43:48.273Z,19.73
2018-11-23T02:46:25.495Z,21.63
2018-11-23T02:49:01.015Z,19.43
2018-11-23T02:51:36.714Z,20.57
2018-11-23T02:54:14.523Z,21.87
2018-11-23T02:56:50.024Z,19.77
2018-11-23T02:59:28.730Z,21.07
2018-11-23T03:02:05.014Z,20.77
2018-11-23T03:04:41.330Z,19.37
2018-11-23T03:07:17.560Z,19.80
2018-11-23T03:09:55.521Z,20.10
2018-11-23T03:12:31.204Z,20.13
2018-11-23T03:15:17.292Z,19.60
2018-11-23T03:17:53.080Z,19.70
2018-11-23T03:20:36.766Z,19.73
2018-11-23T03:23:12.867Z,19.90
2018-11-23T03:25:49.526Z,20.10
2018-11-23T03:28:26.657Z,20.37
2018-11-23T03:31:03.459Z,19.57
2018-11-23T03:33:39.169Z,20.07
2018-11-23T03:36:14.909Z,21.30
2018-11-23T03:38:50.258Z,20.17
2018-11-23T03:41:27.901Z,20.87
2018-11-23T03:44:05.527Z,21.13
2018-11-23T03:46:40.952Z,21.43
2018-11-23T03:49:16.881Z,20.33
2018-11-23T03:51:53.148Z,20.40
2018-11-23T03:54:28.439Z,21.40
2018-11-23T03:57:04.695Z,21.83
2018-11-23T03:59:41.735Z,20.97
2018-11-23T04:02:18.882Z,21.67
2018-11-23T04:04:56.471Z,21.70
2018-11-23T04:07:32.210Z,20.93
2018-11-23T04:10:09.214Z,21.53
2018-11-23T04:12:45.066Z,21.53
2018-11-23T04:15:24.735Z,21.63
2018-11-23T04:17:59.641Z,20.50
2018-11-23T04:20:33.850Z,21.17
2018-11-23T04:23:09.863Z,21.00
2018-11-23T04:25:46.333Z,21.00
2018-11-23T04:28:21.657Z,19.77
2018-11-23T04:30:59.553Z,19.77
2018-11-23T04:33:34.804Z,19.57
2018-11-23T04:36:13.860Z,20.53
2018-11-23T04:38:50.151Z,20.60
2018-11-23T04:41:26.248Z,20.10
2018-11-23T04:44:02.543Z,20.53
2018-11-23T04:46:37.799Z,19.60
2018-11-23T04:49:15.562Z,19.03
2018-11-23T04:51:50.812Z,19.20
2018-11-23T04:54:27.062Z,18.97
2018-11-23T04:57:04.264Z,20.10
2018-11-23T04:59:40.353Z,19.93
2018-11-23T05:02:16.171Z,19.30
2018-11-23T05:04:51.607Z,19.83
2018-11-23T05:07:30.893Z,19.57
2018-11-23T05:10:08.022Z,19.23
2018-11-23T05:12:44.500Z,20.03
2018-11-23T05:15:19.637Z,19.87
2018-11-23T05:17:56.140Z,20.13
2018-11-23T05:20:32.122Z,21.23
2018-11-23T05:23:08.289Z,21.80
2018-11-23T05:25:44.279Z,21.37
2018-11-23T05:28:20.400Z,19.67
2018-11-23T05:30:55.678Z,21.80
2018-11-23T05:33:30.961Z,22.03
2018-11-23T05:36:08.434Z,21.13
2018-11-23T05:38:43.378Z,21.10
2018-11-23T05:41:25.837Z,20.57
2018-11-23T05:44:03.001Z,19.87
2018-11-23T05:46:38.004Z,20.80
2018-11-23T05:49:13.436Z,20.60
2018-11-23T05:51:48.403Z,19.70
2018-11-23T05:54:23.537Z,19.57
2018-11-23T06:00:13.145Z,20.90
2018-11-23T06:04:35.204Z,20.17
2018-11-23T06:07:10.096Z,20.60
2018-11-23T06:09:45.538Z,20.20
2018-11-23T06:12:20.486Z,21.07
2018-11-23T06:14:55.605Z,20.30
2018-11-23T06:17:31.150Z,19.93
2018-11-23T06:20:07.782Z,21.47
2018-11-23T06:22:43.143Z,21.17
2018-11-23T06:25:23.051Z,20.43
2018-11-23T06:27:58.004Z,20.40
2018-11-23T06:30:33.249Z,20.53
2018-11-23T06:33:19.284Z,19.47
2018-11-23T06:35:59.433Z,19.40
2018-11-23T06:38:35.882Z,19.43
2018-11-23T06:41:11.644Z,19.13
2018-11-23T06:43:47.175Z,19.07
2018-11-23T06:46:22.392Z,19.67
2018-11-23T06:48:58.728Z,19.80
2018-11-23T06:51:33.393Z,20.53
2018-11-23T06:54:14.372Z,19.57
2018-11-23T06:56:46.135Z,19.93
2018-11-23T06:59:23.524Z,22.60
2018-11-23T07:01:59.111Z,28.37
2018-11-23T07:04:33.981Z,22.53
2018-11-23T07:07:08.808Z,22.70
2018-11-23T07:09:43.759Z,23.50
2018-11-23T07:12:25.167Z,25.70
2018-11-23T07:15:00.052Z,26.07
2018-11-23T07:17:35.203Z,24.57
2018-11-23T07:20:12.097Z,25.70
2018-11-23T07:22:47.131Z,24.13
2018-11-23T07:25:22.573Z,24.73
2018-11-23T07:27:57.362Z,23.77
2018-11-23T07:30:32.064Z,25.10
2018-11-23T07:33:07.112Z,25.07
2018-11-23T07:35:41.582Z,27.33
2018-11-23T07:38:17.797Z,27.57
2018-11-23T07:41:04.043Z,29.60
2018-11-23T07:43:38.798Z,28.03
2018-11-23T07:46:14.658Z,26.83
2018-11-23T07:48:49.504Z,27.10
2018-11-23T07:51:24.948Z,27.00
2018-11-23T07:54:00.131Z,30.93
2018-11-23T07:56:35.161Z,26.93
2018-11-23T07:59:10.327Z,24.63
2018-11-23T08:01:45.301Z,24.73
2018-11-23T08:04:20.375Z,22.50
2018-11-23T08:06:56.572Z,24.50
2018-11-23T08:09:31.471Z,25.43
2018-11-23T08:12:06.716Z,24.30
2018-11-23T08:14:41.854Z,26.00
2018-11-23T08:17:16.647Z,24.77
2018-11-23T08:19:52.600Z,24.13
2018-11-23T08:22:30.750Z,26.67
2018-11-23T08:25:07.119Z,24.23
2018-11-23T08:27:42.708Z,22.27
2018-11-23T08:30:21.773Z,24.50
2018-11-23T08:32:57.075Z,22.80
2018-11-23T08:35:32.189Z,21.97
2018-11-23T08:38:06.756Z,20.70
2018-11-23T08:40:41.493Z,21.10
2018-11-23T08:43:16.459Z,20.17
2018-11-23T08:45:51.455Z,19.80
2018-11-23T08:48:26.649Z,21.33
2018-11-23T08:51:01.874Z,21.67
2018-11-23T08:53:37.103Z,20.87
2018-11-23T08:56:12.207Z,22.30
2018-11-23T08:58:47.178Z,21.87
2018-11-23T09:01:22.355Z,22.50
2018-11-23T09:03:58.171Z,21.20
2018-11-23T09:06:33.726Z,19.37
2018-11-23T09:09:10.163Z,18.97
2018-11-23T09:11:45.212Z,21.13
2018-11-23T09:14:20.334Z,21.23
2018-11-23T09:16:55.378Z,19.80
2018-11-23T09:19:31.209Z,18.27
2018-11-23T09:22:08.048Z,18.87
2018-11-23T09:24:42.973Z,18.53
2018-11-23T09:27:17.879Z,17.93
2018-11-23T09:29:53.970Z,18.33
2018-11-23T09:32:29.318Z,21.93
2018-11-23T09:35:05.340Z,19.80
2018-11-23T09:37:40.726Z,19.20
2018-11-23T09:40:24.445Z,19.27
2018-11-23T09:42:59.582Z,18.40
2018-11-23T09:45:35.395Z,18.97
2018-11-23T09:48:10.844Z,19.00
2018-11-23T09:50:45.796Z,18.57
2018-11-23T09:53:20.819Z,19.33
2018-11-23T09:55:56.041Z,20.07
2018-11-23T09:58:30.886Z,21.80
2018-11-23T10:03:41.130Z,18.77
2018-11-23T10:06:16.118Z,19.37
2018-11-23T10:08:53.887Z,20.00
2018-11-23T10:11:29.112Z,19.80
2018-11-23T10:14:04.376Z,18.50
2018-11-23T10:16:41.234Z,18.83
2018-11-23T10:19:37.115Z,17.57
2018-11-23T10:22:11.809Z,17.80
2018-11-23T10:24:46.599Z,20.47
2018-11-23T10:27:21.467Z,17.57
2018-11-23T10:29:55.933Z,17.77
2018-11-23T10:32:30.801Z,17.93
2018-11-23T10:35:08.635Z,17.87
2018-11-23T10:37:45.034Z,17.47
2018-11-23T10:40:21.401Z,17.57
2018-11-23T10:42:56.092Z,17.60
2018-11-23T10:45:32.786Z,17.30
2018-11-23T10:48:08.863Z,17.03
2018-11-23T10:50:44.230Z,16.97
2018-11-23T10:53:19.167Z,15.27
2018-11-23T10:55:54.690Z,14.80
2018-11-23T10:58:30.302Z,14.20
2018-11-23T11:01:11.711Z,14.10
2018-11-23T11:03:52.076Z,14.10
2018-11-23T11:06:33.100Z,14.13
2018-11-23T11:09:09.845Z,13.90
2018-11-23T11:11:45.189Z,13.03
2018-11-23T11:14:20.158Z,14.17
2018-11-23T11:16:54.854Z,14.43
2018-11-23T11:19:29.751Z,13.17
2018-11-23T11:22:05.067Z,13.23
2018-11-23T11:24:39.995Z,13.43
2018-11-23T11:27:14.616Z,12.67
2018-11-23T11:29:49.430Z,12.83
2018-11-23T11:32:24.249Z,12.77
2018-11-23T11:34:59.269Z,12.03
2018-11-23T11:37:42.121Z,12.20
2018-11-23T11:40:18.427Z,11.77
2018-11-23T11:42:53.159Z,11.83
2018-11-23T11:45:27.862Z,10.83
2018-11-23T11:48:02.900Z,10.20
2018-11-23T11:50:37.629Z,10.50
2018-11-23T11:53:12.427Z,10.70
2018-11-23T11:55:47.356Z,10.20
2018-11-23T11:58:22.389Z,10.20
2018-11-23T12:00:57.957Z,9.57
2018-11-23T12:03:38.263Z,10.27
2018-11-23T12:06:13.180Z,10.03
2018-11-23T12:08:49.943Z,10.27
2018-11-23T12:11:26.397Z,9.97
2018-11-23T12:14:07.570Z,9.77
2018-11-23T12:16:42.308Z,9.80
2018-11-23T12:19:17.253Z,9.37
2018-11-23T12:21:52.227Z,9.80
2018-11-23T12:24:27.856Z,9.63
2018-11-23T12:27:02.438Z,9.57
2018-11-23T12:29:37.166Z,8.93
2018-11-23T12:32:13.395Z,9.87
2018-11-23T12:34:48.434Z,8.40
2018-11-23T12:37:23.710Z,8.23
2018-11-23T12:39:58.621Z,8.50
2018-11-23T12:42:33.748Z,8.40
2018-11-23T12:45:09.878Z,7.73
2018-11-23T12:47:49.722Z,7.43
2018-11-23T12:50:25.441Z,8.30
2018-11-23T12:53:06.273Z,8.43
2018-11-23T12:55:35.699Z,8.20
2018-11-23T12:58:10.658Z,8.00
2018-11-23T13:00:54.302Z,8.30
2018-11-23T13:03:36.455Z,8.00
2018-11-23T13:06:11.522Z,8.43
2018-11-23T13:08:46.591Z,7.80
2018-11-23T13:11:23.821Z,8.50
2018-11-23T13:14:05.624Z,8.30
2018-11-23T13:16:41.708Z,8.23
2018-11-23T13:19:17.133Z,8.80
2018-11-23T13:21:52.594Z,8.40
2018-11-23T13:24:27.844Z,8.53
2018-11-23T13:27:02.630Z,7.97
2018-11-23T13:29:37.673Z,7.97
2018-11-23T13:32:12.883Z,8.47
2018-11-23T13:34:48.432Z,8.20
2018-11-23T13:37:24.820Z,7.87
2018-11-23T13:40:08.658Z,8.60
2018-11-23T13:42:44.831Z,8.80
2018-11-23T13:45:25.519Z,8.87
2018-11-23T13:48:05.935Z,8.33
2018-11-23T13:50:41.725Z,8.70
2018-11-23T13:53:18.456Z,8.80
2018-11-23T13:55:55.296Z,9.70
2018-11-23T13:58:42.996Z,8.87
2018-11-23T14:01:18.910Z,8.80
2018-11-23T14:03:54.275Z,8.63
2018-11-23T14:06:30.600Z,8.97
2018-11-23T14:09:09.071Z,9.43
2018-11-23T14:11:43.815Z,9.40
2018-11-23T14:14:18.904Z,9.73
2018-11-23T14:16:53.806Z,9.90
2018-11-23T14:19:30.499Z,10.07
2018-11-23T14:22:08.795Z,9.50
2018-11-23T14:24:44.864Z,9.13
2018-11-23T14:27:19.852Z,10.20
2018-11-23T14:30:01.517Z,9.00
2018-11-23T14:32:36.627Z,9.13
2018-11-23T14:35:18.371Z,9.00
2018-11-23T14:37:54.452Z,9.73
2018-11-23T14:40:29.403Z,8.17
2018-11-23T14:43:05.367Z,8.20
2018-11-23T14:45:40.079Z,9.17
2018-11-23T14:48:16.082Z,9.03
2018-11-23T14:50:53.176Z,9.17
2018-11-23T14:53:28.927Z,9.40
2018-11-23T14:56:06.006Z,9.87
2018-11-23T14:58:41.709Z,8.60
2018-11-23T15:01:23.861Z,9.07
2018-11-23T15:04:00.829Z,9.07
2018-11-23T15:06:36.281Z,8.83
2018-11-23T15:09:12.080Z,8.87
2018-11-23T15:11:49.238Z,8.73
2018-11-23T15:14:23.955Z,8.97
2018-11-23T15:16:58.998Z,8.67
2018-11-23T15:23:08.330Z,8.90
2018-11-23T15:25:52.839Z,9.03
2018-11-23T15:28:29.202Z,8.90
2018-11-23T15:31:07.089Z,9.17
2018-11-23T15:33:41.813Z,9.17
2018-11-23T15:36:20.530Z,9.17
2018-11-23T15:38:55.412Z,9.37
2018-11-23T15:41:31.056Z,10.87
2018-11-23T15:44:06.626Z,9.43
2018-11-23T15:46:41.493Z,9.87
2018-11-23T15:49:16.171Z,9.70
2018-11-23T15:51:51.311Z,9.80
2018-11-23T15:54:26.633Z,9.33
2018-11-23T15:57:01.578Z,10.30
2018-11-23T15:59:36.642Z,10.07
2018-11-23T16:02:11.623Z,10.07
2018-11-23T16:04:46.828Z,9.80
2018-11-23T16:07:21.775Z,10.03
2018-11-23T16:09:59.076Z,9.07
2018-11-23T16:12:36.750Z,9.73
2018-11-23T16:15:11.770Z,9.30
2018-11-23T16:17:49.074Z,9.77
2018-11-23T16:20:26.381Z,9.03
2018-11-23T16:23:03.777Z,9.73
2018-11-23T16:25:51.495Z,9.63
2018-11-23T16:28:28.288Z,8.90
2018-11-23T16:31:05.252Z,9.17
2018-11-23T16:33:40.505Z,9.70
2018-11-23T16:36:22.083Z,9.53
2018-11-23T16:38:58.555Z,9.70
2018-11-23T16:41:36.522Z,9.17
2018-11-23T16:44:12.803Z,9.07
2018-11-23T16:46:50.161Z,9.53
2018-11-23T16:49:27.572Z,10.10
2018-11-23T16:52:02.821Z,10.20
2018-11-23T16:54:38.405Z,9.63
2018-11-23T16:57:21.987Z,9.03
2018-11-23T16:59:58.339Z,9.93
2018-11-23T17:02:35.729Z,9.87
2018-11-23T17:05:13.248Z,9.80
2018-11-23T17:07:49.714Z,9.90
2018-11-23T17:10:24.802Z,9.53
2018-11-23T17:13:00.943Z,10.53
2018-11-23T17:15:37.097Z,10.73
2018-11-23T17:18:13.711Z,10.30
2018-11-23T17:20:49.578Z,11.43
2018-11-23T17:23:25.361Z,10.77
2018-11-23T17:26:01.454Z,12.10
2018-11-23T17:28:38.005Z,11.57
2018-11-23T17:31:13.143Z,12.07
2018-11-23T17:34:03.667Z,11.87
2018-11-23T17:36:39.280Z,11.90
2018-11-23T17:39:14.364Z,12.00
2018-11-23T17:41:49.832Z,12.40
2018-11-23T17:44:27.993Z,12.43
2018-11-23T17:47:04.768Z,13.07
2018-11-23T17:49:41.844Z,13.50
2018-11-23T17:52:17.909Z,12.47
2018-11-23T17:54:59.968Z,13.27
2018-11-23T17:57:39.724Z,13.30
2018-11-23T18:00:18.549Z,13.10
2018-11-23T18:02:54.670Z,14.50
2018-11-23T18:05:42.972Z,13.37
2018-11-23T18:08:18.015Z,13.83
2018-11-23T18:10:57.215Z,14.17
2018-11-23T18:13:32.350Z,13.23
2018-11-23T18:16:08.058Z,13.23
2018-11-23T18:18:48.066Z,13.27
2018-11-23T18:21:24.921Z,13.03
2018-11-23T18:24:00.824Z,13.10
2018-11-23T18:26:40.079Z,12.70
2018-11-23T18:29:15.135Z,12.97
2018-11-23T18:31:51.089Z,13.63
2018-11-23T18:34:27.873Z,12.63
2018-11-23T18:37:03.718Z,13.07
2018-11-23T18:39:38.433Z,13.17
2018-11-23T18:42:13.964Z,13.57
2018-11-23T18:44:48.939Z,13.67
2018-11-23T18:47:24.787Z,13.50
2018-11-23T18:49:59.669Z,14.43
2018-11-23T18:52:45.520Z,14.77
2018-11-23T18:55:21.766Z,13.57
2018-11-23T18:58:01.097Z,14.77
2018-11-23T19:00:40.712Z,14.17
2018-11-23T19:03:16.862Z,13.60
2018-11-23T19:05:55.510Z,15.07
2018-11-23T19:08:32.241Z,16.43
2018-11-23T19:11:09.552Z,15.23
2018-11-23T19:13:45.743Z,15.37
2018-11-23T19:16:24.315Z,15.73
2018-11-23T19:19:00.275Z,15.60
2018-11-23T19:21:35.938Z,15.43
2018-11-23T19:24:13.225Z,15.73
2018-11-23T19:26:49.222Z,15.90
2018-11-23T19:29:24.959Z,16.83
2018-11-23T19:34:59.777Z,17.30
2018-11-23T19:37:35.311Z,17.80
2018-11-23T19:40:19.206Z,17.77
2018-11-23T19:42:56.295Z,17.00
2018-11-23T19:45:31.799Z,17.40
2018-11-23T19:48:07.547Z,18.20
2018-11-23T19:50:42.835Z,17.60
2018-11-23T19:56:05.941Z,18.33
2018-11-23T19:58:43.323Z,17.10
2018-11-23T20:01:18.409Z,17.50
2018-11-23T20:03:54.729Z,18.17
2018-11-23T20:06:32.087Z,18.33
2018-11-23T20:09:10.471Z,17.90
2018-11-23T20:11:49.604Z,18.00
2018-11-23T20:14:26.260Z,18.10
2018-11-23T20:17:01.474Z,17.40
2018-11-23T20:19:38.720Z,17.10
2018-11-23T20:22:17.200Z,17.47
2018-11-23T20:24:54.304Z,18.57
2018-11-23T20:27:31.676Z,18.03
2018-11-23T20:30:13.776Z,18.23
2018-11-23T20:32:51.516Z,17.70
2018-11-23T20:35:27.672Z,17.33
2018-11-23T20:38:13.295Z,16.33
2018-11-23T20:40:54.716Z,16.57
2018-11-23T20:43:29.777Z,16.83
2018-11-23T20:46:05.527Z,16.43
2018-11-23T20:48:41.243Z,16.67
2018-11-23T20:51:24.681Z,16.30
2018-11-23T20:54:00.188Z,17.33
2018-11-23T20:56:34.877Z,16.63
2018-11-23T20:59:09.827Z,16.67
2018-11-23T21:01:45.318Z,16.80
2018-11-23T21:04:20.503Z,15.87
2018-11-23T21:06:56.731Z,15.77
2018-11-23T21:09:31.975Z,15.90
2018-11-23T21:12:07.307Z,17.13
2018-11-23T21:14:42.461Z,16.37
2018-11-23T21:17:17.822Z,16.63
2018-11-23T21:19:54.824Z,14.63
2018-11-23T21:22:30.825Z,15.03
2018-11-23T21:25:06.944Z,15.73
2018-11-23T21:27:44.429Z,14.93
2018-11-23T21:30:22.504Z,15.07
2018-11-23T21:33:00.065Z,15.07
2018-11-23T21:35:43.008Z,14.77
2018-11-23T21:38:20.391Z,14.93
2018-11-23T21:40:59.272Z,18.27
2018-11-23T21:43:37.378Z,14.80
2018-11-23T21:46:18.827Z,15.17
2018-11-23T21:48:59.032Z,14.30
2018-11-23T21:51:38.594Z,15.23
2018-11-23T21:54:14.695Z,14.87
2018-11-23T21:56:50.586Z,14.93
2018-11-23T21:59:32.236Z,15.20
2018-11-23T22:02:26.510Z,13.33
2018-11-23T22:05:04.215Z,13.90
2018-11-23T22:07:44.611Z,14.27
2018-11-23T22:10:27.159Z,13.83
2018-11-23T22:13:03.283Z,12.77
2018-11-23T22:15:43.294Z,12.93
2018-11-23T22:18:22.841Z,13.00
2018-11-23T22:21:08.288Z,12.77
2018-11-23T22:23:45.296Z,13.50
2018-11-23T22:26:21.593Z,13.23
2018-11-23T22:28:56.551Z,13.00
2018-11-23T22:31:31.690Z,14.27
2018-11-23T22:34:07.517Z,13.07
2018-11-23T22:36:42.386Z,13.07
2018-11-23T22:39:20.089Z,13.77
2018-11-23T22:41:57.910Z,14.43
2018-11-23T22:44:33.988Z,14.90
2018-11-23T22:47:09.585Z,13.77
2018-11-23T22:49:45.363Z,14.60
2018-11-23T22:52:21.245Z,14.43
2018-11-23T22:57:49.094Z,13.53
2018-11-23T23:00:33.876Z,14.90
2018-11-23T23:03:09.003Z,14.77
2018-11-23T23:05:47.201Z,14.93
2018-11-23T23:08:26.642Z,14.90
2018-11-23T23:11:02.373Z,14.57
2018-11-23T23:13:39.099Z,14.77
2018-11-23T23:16:15.324Z,15.20
2018-11-23T23:18:55.118Z,14.60
2018-11-23T23:21:30.372Z,14.87
2018-11-23T23:24:11.596Z,14.27
2018-11-23T23:26:42.331Z,14.83
2018-11-23T23:29:17.442Z,15.27
2018-11-23T23:31:59.607Z,14.63
2018-11-23T23:34:37.997Z,15.13
2018-11-23T23:37:14.517Z,14.37
2018-11-23T23:39:54.420Z,15.27
2018-11-23T23:42:31.264Z,16.30
2018-11-23T23:45:25.291Z,14.60
2018-11-23T23:48:01.997Z,15.10
2018-11-23T23:50:37.286Z,14.67
2018-11-23T23:53:14.305Z,14.93
2018-11-23T23:55:54.307Z,15.30
2018-11-23T23:58:30.489Z,15.50
